sensor_id;sensor_type;location;lat;lon;timestamp;pressure;altitude;pressure_sealevel;temperature;humidity
78741;BME280;68062;48.726;9.370;2023-04-05T00:02:08;99312.03;;;-1.83;87.47
78741;BME280;68062;48.726;9.370;2023-04-05T00:04:38;99304.22;;;-2.03;87.52
78741;BME280;68062;48.726;9.370;2023-04-05T00:07:15;99303.38;;;-2.03;87.70
78741;BME280;68062;48.726;9.370;2023-04-05T00:09:43;99298.66;;;-1.97;88.41
78741;BME280;68062;48.726;9.370;2023-04-05T00:12:10;99303.19;;;-1.76;87.12
78741;BME280;68062;48.726;9.370;2023-04-05T00:14:36;99307.69;;;-1.71;86.42
78741;BME280;68062;48.726;9.370;2023-04-05T00:17:03;99302.22;;;-1.79;85.76
78741;BME280;68062;48.726;9.370;2023-04-05T00:19:30;99301.63;;;-1.89;86.44
78741;BME280;68062;48.726;9.370;2023-04-05T00:22:01;99281.72;;;-2.00;86.42
78741;BME280;68062;48.726;9.370;2023-04-05T00:24:28;99290.47;;;-1.78;85.36
78741;BME280;68062;48.726;9.370;2023-04-05T00:26:59;99295.25;;;-1.68;84.49
78741;BME280;68062;48.726;9.370;2023-04-05T00:29:26;99286.88;;;-1.52;83.46
78741;BME280;68062;48.726;9.370;2023-04-05T00:31:53;99279.00;;;-1.58;82.92
78741;BME280;68062;48.726;9.370;2023-04-05T00:34:20;99280.38;;;-1.63;83.30
78741;BME280;68062;48.726;9.370;2023-04-05T00:36:46;99271.34;;;-1.89;84.48
78741;BME280;68062;48.726;9.370;2023-04-05T00:39:13;99275.97;;;-2.12;85.55
78741;BME280;68062;48.726;9.370;2023-04-05T00:41:40;99273.13;;;-2.03;85.53
78741;BME280;68062;48.726;9.370;2023-04-05T00:44:09;99269.63;;;-1.90;85.11
78741;BME280;68062;48.726;9.370;2023-04-05T00:46:37;99274.94;;;-2.01;85.25
78741;BME280;68062;48.726;9.370;2023-04-05T00:49:03;99273.97;;;-1.88;84.96
78741;BME280;68062;48.726;9.370;2023-04-05T00:51:31;99250.69;;;-2.14;85.59
78741;BME280;68062;48.726;9.370;2023-04-05T00:53:59;99274.41;;;-2.10;87.13
78741;BME280;68062;48.726;9.370;2023-04-05T00:56:28;99267.72;;;-2.25;87.84
78741;BME280;68062;48.726;9.370;2023-04-05T00:58:55;99267.00;;;-2.07;88.05
78741;BME280;68062;48.726;9.370;2023-04-05T01:01:25;99262.41;;;-2.14;88.15
78741;BME280;68062;48.726;9.370;2023-04-05T01:03:56;99257.72;;;-2.08;89.05
78741;BME280;68062;48.726;9.370;2023-04-05T01:06:36;99265.28;;;-2.23;91.03
78741;BME280;68062;48.726;9.370;2023-04-05T01:09:13;99263.56;;;-2.24;92.18
78741;BME280;68062;48.726;9.370;2023-04-05T01:11:44;99227.56;;;-2.37;91.78
78741;BME280;68062;48.726;9.370;2023-04-05T01:14:13;99261.19;;;-2.06;90.54
78741;BME280;68062;48.726;9.370;2023-04-05T01:16:42;99248.25;;;-2.27;91.19
78741;BME280;68062;48.726;9.370;2023-04-05T01:19:09;99254.34;;;-2.39;92.16
78741;BME280;68062;48.726;9.370;2023-04-05T01:21:54;99252.78;;;-2.37;92.71
78741;BME280;68062;48.726;9.370;2023-04-05T01:24:48;99219.03;;;-2.54;92.49
78741;BME280;68062;48.726;9.370;2023-04-05T01:27:20;99238.88;;;-2.45;92.12
78741;BME280;68062;48.726;9.370;2023-04-05T01:29:58;99239.28;;;-2.52;91.68
78741;BME280;68062;48.726;9.370;2023-04-05T01:32:48;99238.66;;;-2.63;91.41
78741;BME280;68062;48.726;9.370;2023-04-05T01:35:29;99235.53;;;-2.74;91.80
78741;BME280;68062;48.726;9.370;2023-04-05T01:38:02;99234.78;;;-2.86;93.04
78741;BME280;68062;48.726;9.370;2023-04-05T01:40:31;99224.78;;;-2.71;92.39
78741;BME280;68062;48.726;9.370;2023-04-05T01:43:00;99223.72;;;-2.75;91.92
78741;BME280;68062;48.726;9.370;2023-04-05T01:45:29;99204.94;;;-2.80;91.91
78741;BME280;68062;48.726;9.370;2023-04-05T01:47:56;99224.25;;;-2.51;91.18
78741;BME280;68062;48.726;9.370;2023-04-05T01:50:23;99226.59;;;-2.54;91.52
78741;BME280;68062;48.726;9.370;2023-04-05T01:52:50;99220.88;;;-2.51;91.06
78741;BME280;68062;48.726;9.370;2023-04-05T01:55:16;99220.94;;;-2.64;91.82
78741;BME280;68062;48.726;9.370;2023-04-05T01:57:43;99224.94;;;-2.68;91.92
78741;BME280;68062;48.726;9.370;2023-04-05T02:00:11;99220.41;;;-2.59;91.93
78741;BME280;68062;48.726;9.370;2023-04-05T02:02:41;99214.59;;;-2.73;91.41
78741;BME280;68062;48.726;9.370;2023-04-05T02:05:08;99210.16;;;-2.77;92.12
78741;BME280;68062;48.726;9.370;2023-04-05T02:07:35;99216.75;;;-2.94;93.01
78741;BME280;68062;48.726;9.370;2023-04-05T02:10:03;99214.88;;;-3.12;93.43
78741;BME280;68062;48.726;9.370;2023-04-05T02:12:30;99189.53;;;-3.15;93.87
78741;BME280;68062;48.726;9.370;2023-04-05T02:14:57;99210.78;;;-3.09;94.07
78741;BME280;68062;48.726;9.370;2023-04-05T02:17:24;99212.84;;;-3.17;95.25
78741;BME280;68062;48.726;9.370;2023-04-05T02:20:00;99211.03;;;-3.20;96.66
78741;BME280;68062;48.726;9.370;2023-04-05T02:22:34;99215.31;;;-3.32;97.91
78741;BME280;68062;48.726;9.370;2023-04-05T02:25:01;99214.22;;;-3.36;99.67
78741;BME280;68062;48.726;9.370;2023-04-05T02:27:30;99206.69;;;-3.36;100.00
78741;BME280;68062;48.726;9.370;2023-04-05T02:29:58;99202.44;;;-3.37;100.00
78741;BME280;68062;48.726;9.370;2023-04-05T02:32:24;99206.47;;;-3.26;100.00
78741;BME280;68062;48.726;9.370;2023-04-05T02:34:51;99208.91;;;-2.99;99.05
78741;BME280;68062;48.726;9.370;2023-04-05T02:37:23;99206.38;;;-2.99;97.63
78741;BME280;68062;48.726;9.370;2023-04-05T02:39:51;99209.06;;;-2.96;96.73
78741;BME280;68062;48.726;9.370;2023-04-05T02:42:18;99195.13;;;-2.90;96.35
78741;BME280;68062;48.726;9.370;2023-04-05T02:44:44;99201.13;;;-3.17;97.10
78741;BME280;68062;48.726;9.370;2023-04-05T02:47:13;99203.47;;;-3.20;97.54
78741;BME280;68062;48.726;9.370;2023-04-05T02:49:46;99207.56;;;-3.35;97.64
78741;BME280;68062;48.726;9.370;2023-04-05T02:52:15;99202.88;;;-3.58;98.09
78741;BME280;68062;48.726;9.370;2023-04-05T02:54:46;99206.06;;;-3.47;97.28
78741;BME280;68062;48.726;9.370;2023-04-05T02:57:17;99203.81;;;-3.42;97.17
78741;BME280;68062;48.726;9.370;2023-04-05T02:59:51;99197.63;;;-3.47;97.08
78741;BME280;68062;48.726;9.370;2023-04-05T03:02:20;99194.66;;;-3.55;97.36
78741;BME280;68062;48.726;9.370;2023-04-05T03:04:46;99196.66;;;-3.49;98.00
78741;BME280;68062;48.726;9.370;2023-04-05T03:07:15;99197.41;;;-3.37;96.04
78741;BME280;68062;48.726;9.370;2023-04-05T03:09:45;99187.00;;;-3.57;98.16
78741;BME280;68062;48.726;9.370;2023-04-05T03:12:13;99187.00;;;-3.57;98.14
78741;BME280;68062;48.726;9.370;2023-04-05T03:14:42;99182.84;;;-3.56;98.24
78741;BME280;68062;48.726;9.370;2023-04-05T03:17:13;99175.78;;;-3.62;99.30
78741;BME280;68062;48.726;9.370;2023-04-05T03:19:45;99194.09;;;-3.64;100.00
78741;BME280;68062;48.726;9.370;2023-04-05T03:22:17;99194.50;;;-3.72;100.00
78741;BME280;68062;48.726;9.370;2023-04-05T03:24:45;99186.56;;;-3.78;100.00
78741;BME280;68062;48.726;9.370;2023-04-05T03:27:14;99192.00;;;-3.85;100.00
78741;BME280;68062;48.726;9.370;2023-04-05T03:29:55;99189.94;;;-3.77;100.00
78741;BME280;68062;48.726;9.370;2023-04-05T03:32:21;99185.59;;;-3.80;100.00
78741;BME280;68062;48.726;9.370;2023-04-05T03:34:55;99190.13;;;-3.88;100.00
78741;BME280;68062;48.726;9.370;2023-04-05T03:37:23;99192.31;;;-4.07;100.00
78741;BME280;68062;48.726;9.370;2023-04-05T03:40:00;99187.44;;;-3.91;100.00
78741;BME280;68062;48.726;9.370;2023-04-05T03:42:29;99190.22;;;-3.31;100.00
78741;BME280;68062;48.726;9.370;2023-04-05T03:44:56;99181.59;;;-3.21;98.31
78741;BME280;68062;48.726;9.370;2023-04-05T03:47:24;99183.41;;;-3.47;99.34
78741;BME280;68062;48.726;9.370;2023-04-05T03:49:51;99187.34;;;-3.79;100.00
78741;BME280;68062;48.726;9.370;2023-04-05T03:52:18;99195.75;;;-3.92;100.00
78741;BME280;68062;48.726;9.370;2023-04-05T03:54:45;99189.66;;;-4.22;100.00
78741;BME280;68062;48.726;9.370;2023-04-05T03:57:16;99184.25;;;-4.29;100.00
78741;BME280;68062;48.726;9.370;2023-04-05T03:59:44;99188.63;;;-4.12;100.00
78741;BME280;68062;48.726;9.370;2023-04-05T04:02:11;99191.13;;;-4.26;100.00
78741;BME280;68062;48.726;9.370;2023-04-05T04:04:38;99189.00;;;-4.20;100.00
78741;BME280;68062;48.726;9.370;2023-04-05T04:07:05;99173.81;;;-4.21;100.00
78741;BME280;68062;48.726;9.370;2023-04-05T04:09:32;99205.44;;;-4.11;100.00
78741;BME280;68062;48.726;9.370;2023-04-05T04:12:06;99190.72;;;-3.78;100.00
78741;BME280;68062;48.726;9.370;2023-04-05T04:14:38;99191.09;;;-3.72;99.89
78741;BME280;68062;48.726;9.370;2023-04-05T04:17:26;99198.34;;;-3.63;98.47
78741;BME280;68062;48.726;9.370;2023-04-05T04:20:22;99194.66;;;-3.55;97.44
78741;BME280;68062;48.726;9.370;2023-04-05T04:23:03;99187.97;;;-3.55;96.61
78741;BME280;68062;48.726;9.370;2023-04-05T04:25:49;99202.63;;;-3.89;98.56
78741;BME280;68062;48.726;9.370;2023-04-05T04:28:44;99191.13;;;-4.39;100.00
78741;BME280;68062;48.726;9.370;2023-04-05T04:31:42;99200.66;;;-4.34;100.00
78741;BME280;68062;48.726;9.370;2023-04-05T04:34:16;99204.34;;;-4.29;100.00
78741;BME280;68062;48.726;9.370;2023-04-05T04:36:58;99207.53;;;-4.31;100.00
78741;BME280;68062;48.726;9.370;2023-04-05T04:40:01;99201.41;;;-4.48;100.00
78741;BME280;68062;48.726;9.370;2023-04-05T04:42:49;99202.72;;;-4.15;100.00
78741;BME280;68062;48.726;9.370;2023-04-05T04:45:48;99204.63;;;-3.97;99.92
78741;BME280;68062;48.726;9.370;2023-04-05T04:48:40;99192.63;;;-3.74;97.70
78741;BME280;68062;48.726;9.370;2023-04-05T04:51:22;99193.22;;;-3.78;97.26
78741;BME280;68062;48.726;9.370;2023-04-05T04:53:49;99195.28;;;-4.00;98.33
78741;BME280;68062;48.726;9.370;2023-04-05T04:56:16;99204.16;;;-4.05;98.74
78741;BME280;68062;48.726;9.370;2023-04-05T04:58:42;99199.91;;;-4.19;99.54
78741;BME280;68062;48.726;9.370;2023-04-05T05:01:09;99206.66;;;-4.32;100.00
78741;BME280;68062;48.726;9.370;2023-04-05T05:03:35;99201.56;;;-4.20;100.00
78741;BME280;68062;48.726;9.370;2023-04-05T05:06:05;99108.13;;;-4.68;100.00
78741;BME280;68062;48.726;9.370;2023-04-05T05:08:33;99205.31;;;-4.26;100.00
78741;BME280;68062;48.726;9.370;2023-04-05T05:11:01;99206.78;;;-4.30;100.00
78741;BME280;68062;48.726;9.370;2023-04-05T05:13:31;99179.91;;;-4.31;100.00
78741;BME280;68062;48.726;9.370;2023-04-05T05:15:58;99199.44;;;-4.14;100.00
78741;BME280;68062;48.726;9.370;2023-04-05T05:18:26;99201.66;;;-3.91;99.16
78741;BME280;68062;48.726;9.370;2023-04-05T05:20:53;99197.78;;;-4.00;98.76
78741;BME280;68062;48.726;9.370;2023-04-05T05:23:21;99208.22;;;-4.07;99.10
78741;BME280;68062;48.726;9.370;2023-04-05T05:25:48;99207.38;;;-4.07;99.54
78741;BME280;68062;48.726;9.370;2023-04-05T05:28:15;99207.66;;;-4.16;99.89
78741;BME280;68062;48.726;9.370;2023-04-05T05:30:41;99210.94;;;-4.04;100.00
78741;BME280;68062;48.726;9.370;2023-04-05T05:33:09;99206.00;;;-3.89;99.08
78741;BME280;68062;48.726;9.370;2023-04-05T05:35:35;99202.03;;;-3.85;99.59
78741;BME280;68062;48.726;9.370;2023-04-05T05:38:03;99206.28;;;-3.84;100.00
78741;BME280;68062;48.726;9.370;2023-04-05T05:40:31;99207.16;;;-3.84;100.00
78741;BME280;68062;48.726;9.370;2023-04-05T05:42:58;99202.50;;;-3.77;99.96
78741;BME280;68062;48.726;9.370;2023-04-05T05:45:25;99218.06;;;-3.56;99.18
78741;BME280;68062;48.726;9.370;2023-04-05T05:47:52;99214.59;;;-3.30;97.38
78741;BME280;68062;48.726;9.370;2023-04-05T05:50:19;99214.97;;;-3.23;96.05
78741;BME280;68062;48.726;9.370;2023-04-05T05:52:46;99220.75;;;-3.11;96.18
78741;BME280;68062;48.726;9.370;2023-04-05T05:55:13;99209.50;;;-3.03;94.50
78741;BME280;68062;48.726;9.370;2023-04-05T05:57:41;99148.66;;;-3.11;92.05
78741;BME280;68062;48.726;9.370;2023-04-05T06:00:08;99206.25;;;-2.87;92.27
78741;BME280;68062;48.726;9.370;2023-04-05T06:02:40;99210.88;;;-2.79;92.63
78741;BME280;68062;48.726;9.370;2023-04-05T06:05:07;99210.09;;;-2.48;91.67
78741;BME280;68062;48.726;9.370;2023-04-05T06:07:35;99214.88;;;-2.53;90.83
78741;BME280;68062;48.726;9.370;2023-04-05T06:10:02;99213.41;;;-2.49;91.57
78741;BME280;68062;48.726;9.370;2023-04-05T06:12:29;99209.75;;;-2.10;91.11
78741;BME280;68062;48.726;9.370;2023-04-05T06:14:57;99209.47;;;-1.20;86.53
78741;BME280;68062;48.726;9.370;2023-04-05T06:17:23;99207.28;;;0.25;79.89
78741;BME280;68062;48.726;9.370;2023-04-05T06:19:50;99209.72;;;1.39;74.32
78741;BME280;68062;48.726;9.370;2023-04-05T06:22:17;99198.34;;;2.82;68.08
78741;BME280;68062;48.726;9.370;2023-04-05T06:24:44;99198.84;;;3.20;64.37
78741;BME280;68062;48.726;9.370;2023-04-05T06:27:10;99194.97;;;3.83;61.63
78741;BME280;68062;48.726;9.370;2023-04-05T06:29:38;99199.81;;;4.31;61.65
78741;BME280;68062;48.726;9.370;2023-04-05T06:32:07;99202.31;;;3.74;60.92
78741;BME280;68062;48.726;9.370;2023-04-05T06:34:33;99200.09;;;4.40;60.98
78741;BME280;68062;48.726;9.370;2023-04-05T06:37:00;99204.03;;;5.52;56.40
78741;BME280;68062;48.726;9.370;2023-04-05T06:39:27;99198.03;;;5.87;55.51
78741;BME280;68062;48.726;9.370;2023-04-05T06:41:53;99205.97;;;5.98;55.06
78741;BME280;68062;48.726;9.370;2023-04-05T06:44:25;99200.31;;;5.74;54.56
78741;BME280;68062;48.726;9.370;2023-04-05T06:46:52;99202.00;;;7.33;51.13
78741;BME280;68062;48.726;9.370;2023-04-05T06:49:19;99201.69;;;6.73;51.03
78741;BME280;68062;48.726;9.370;2023-04-05T06:51:46;99204.53;;;6.46;51.75
78741;BME280;68062;48.726;9.370;2023-04-05T06:54:13;99147.94;;;6.70;49.92
78741;BME280;68062;48.726;9.370;2023-04-05T06:56:40;99195.81;;;7.22;50.76
78741;BME280;68062;48.726;9.370;2023-04-05T06:59:06;99194.72;;;7.09;50.24
78741;BME280;68062;48.726;9.370;2023-04-05T07:01:33;99188.59;;;8.01;47.72
78741;BME280;68062;48.726;9.370;2023-04-05T07:04:01;99188.78;;;7.58;47.75
78741;BME280;68062;48.726;9.370;2023-04-05T07:06:29;99203.84;;;6.96;49.54
78741;BME280;68062;48.726;9.370;2023-04-05T07:08:58;99190.00;;;7.80;48.68
78741;BME280;68062;48.726;9.370;2023-04-05T07:11:26;99190.69;;;7.20;50.30
78741;BME280;68062;48.726;9.370;2023-04-05T07:13:52;99192.84;;;7.99;48.83
78741;BME280;68062;48.726;9.370;2023-04-05T07:16:19;99187.81;;;8.66;47.19
78741;BME280;68062;48.726;9.370;2023-04-05T07:18:47;99187.88;;;8.09;48.76
78741;BME280;68062;48.726;9.370;2023-04-05T07:21:14;99189.72;;;8.20;46.56
78741;BME280;68062;48.726;9.370;2023-04-05T07:23:42;99197.19;;;8.63;46.91
78741;BME280;68062;48.726;9.370;2023-04-05T07:26:09;99194.91;;;8.85;45.51
78741;BME280;68062;48.726;9.370;2023-04-05T07:28:36;99193.22;;;9.73;44.60
78741;BME280;68062;48.726;9.370;2023-04-05T07:31:04;99184.94;;;9.09;45.21
78741;BME280;68062;48.726;9.370;2023-04-05T07:33:32;99203.22;;;7.54;48.07
78741;BME280;68062;48.726;9.370;2023-04-05T07:35:59;99191.50;;;8.22;47.61
78741;BME280;68062;48.726;9.370;2023-04-05T07:38:27;99190.00;;;8.38;47.29
78741;BME280;68062;48.726;9.370;2023-04-05T07:40:56;99187.19;;;8.21;46.02
78741;BME280;68062;48.726;9.370;2023-04-05T07:43:23;99189.34;;;9.24;44.34
78741;BME280;68062;48.726;9.370;2023-04-05T07:45:59;99187.31;;;9.85;44.04
78741;BME280;68062;48.726;9.370;2023-04-05T07:48:26;99178.03;;;10.02;43.28
78741;BME280;68062;48.726;9.370;2023-04-05T07:50:53;99178.94;;;10.09;42.93
78741;BME280;68062;48.726;9.370;2023-04-05T07:53:20;99183.84;;;9.80;43.31
78741;BME280;68062;48.726;9.370;2023-04-05T07:55:48;99184.25;;;8.53;45.04
78741;BME280;68062;48.726;9.370;2023-04-05T07:58:17;99183.47;;;8.58;44.95
78741;BME280;68062;48.726;9.370;2023-04-05T08:00:44;99193.72;;;9.35;43.36
78741;BME280;68062;48.726;9.370;2023-04-05T08:03:10;99188.53;;;9.27;43.44
78741;BME280;68062;48.726;9.370;2023-04-05T08:05:37;99176.69;;;10.68;41.31
78741;BME280;68062;48.726;9.370;2023-04-05T08:08:04;99181.16;;;11.08;40.45
78741;BME280;68062;48.726;9.370;2023-04-05T08:10:37;99178.66;;;11.58;39.39
78741;BME280;68062;48.726;9.370;2023-04-05T08:13:04;99181.09;;;12.71;37.30
78741;BME280;68062;48.726;9.370;2023-04-05T08:15:33;99168.34;;;12.04;38.24
78741;BME280;68062;48.726;9.370;2023-04-05T08:18:00;99173.16;;;13.10;35.99
78741;BME280;68062;48.726;9.370;2023-04-05T08:20:27;99172.41;;;12.88;35.70
78741;BME280;68062;48.726;9.370;2023-04-05T08:22:53;99170.06;;;11.48;36.21
78741;BME280;68062;48.726;9.370;2023-04-05T08:25:20;99174.22;;;10.96;38.07
78741;BME280;68062;48.726;9.370;2023-04-05T08:27:46;99183.34;;;9.21;39.20
78741;BME280;68062;48.726;9.370;2023-04-05T08:30:13;99173.72;;;9.97;39.21
78741;BME280;68062;48.726;9.370;2023-04-05T08:32:42;99174.50;;;9.86;38.77
78741;BME280;68062;48.726;9.370;2023-04-05T08:35:09;99167.16;;;10.39;38.10
78741;BME280;68062;48.726;9.370;2023-04-05T08:37:36;99172.31;;;8.56;40.09
78741;BME280;68062;48.726;9.370;2023-04-05T08:40:03;99158.38;;;8.38;41.29
78741;BME280;68062;48.726;9.370;2023-04-05T08:42:35;99170.59;;;7.96;40.68
78741;BME280;68062;48.726;9.370;2023-04-05T08:45:03;99168.88;;;8.55;40.15
78741;BME280;68062;48.726;9.370;2023-04-05T08:47:36;99167.47;;;9.65;37.82
78741;BME280;68062;48.726;9.370;2023-04-05T08:50:05;99164.72;;;10.72;36.34
78741;BME280;68062;48.726;9.370;2023-04-05T08:52:32;99170.91;;;9.66;36.54
78741;BME280;68062;48.726;9.370;2023-04-05T08:55:02;99171.94;;;8.95;38.65
78741;BME280;68062;48.726;9.370;2023-04-05T08:57:30;99173.97;;;8.50;38.52
78741;BME280;68062;48.726;9.370;2023-04-05T08:59:58;99149.31;;;9.43;38.32
78741;BME280;68062;48.726;9.370;2023-04-05T09:02:27;99166.81;;;9.91;37.26
78741;BME280;68062;48.726;9.370;2023-04-05T09:04:55;99158.28;;;9.98;36.30
78741;BME280;68062;48.726;9.370;2023-04-05T09:07:26;99156.78;;;10.31;36.72
78741;BME280;68062;48.726;9.370;2023-04-05T09:09:56;99158.78;;;10.93;34.99
78741;BME280;68062;48.726;9.370;2023-04-05T09:12:25;99153.72;;;12.19;34.04
78741;BME280;68062;48.726;9.370;2023-04-05T09:14:52;99163.97;;;11.12;33.61
78741;BME280;68062;48.726;9.370;2023-04-05T09:17:20;99153.31;;;10.22;35.46
78741;BME280;68062;48.726;9.370;2023-04-05T09:19:48;99161.91;;;10.28;34.73
78741;BME280;68062;48.726;9.370;2023-04-05T09:22:15;99163.97;;;11.06;33.82
78741;BME280;68062;48.726;9.370;2023-04-05T09:24:45;99153.72;;;11.26;34.49
78741;BME280;68062;48.726;9.370;2023-04-05T09:27:16;99151.16;;;11.26;34.58
78741;BME280;68062;48.726;9.370;2023-04-05T09:29:47;99145.16;;;11.42;33.54
78741;BME280;68062;48.726;9.370;2023-04-05T09:32:16;99147.38;;;10.34;35.03
78741;BME280;68062;48.726;9.370;2023-04-05T09:34:43;99156.09;;;10.62;34.85
78741;BME280;68062;48.726;9.370;2023-04-05T09:37:19;99149.00;;;10.18;33.21
78741;BME280;68062;48.726;9.370;2023-04-05T09:39:49;99144.13;;;10.73;33.51
78741;BME280;68062;48.726;9.370;2023-04-05T09:42:17;99153.75;;;9.62;34.19
78741;BME280;68062;48.726;9.370;2023-04-05T09:44:50;99148.84;;;9.93;36.44
78741;BME280;68062;48.726;9.370;2023-04-05T09:47:18;99143.38;;;10.98;35.00
78741;BME280;68062;48.726;9.370;2023-04-05T09:49:49;99141.75;;;11.62;33.25
78741;BME280;68062;48.726;9.370;2023-04-05T09:52:21;99139.91;;;12.46;32.71
78741;BME280;68062;48.726;9.370;2023-04-05T09:54:51;99131.38;;;12.15;32.97
78741;BME280;68062;48.726;9.370;2023-04-05T09:57:21;99139.13;;;12.07;32.71
78741;BME280;68062;48.726;9.370;2023-04-05T09:59:48;99141.69;;;11.06;33.33
78741;BME280;68062;48.726;9.370;2023-04-05T10:02:15;99136.59;;;11.65;33.04
78741;BME280;68062;48.726;9.370;2023-04-05T10:04:43;99127.97;;;11.88;32.97
78741;BME280;68062;48.726;9.370;2023-04-05T10:07:11;99133.84;;;10.70;35.66
78741;BME280;68062;48.726;9.370;2023-04-05T10:09:38;99103.94;;;11.08;33.98
78741;BME280;68062;48.726;9.370;2023-04-05T10:12:08;99138.22;;;10.99;33.63
78741;BME280;68062;48.726;9.370;2023-04-05T10:14:36;99130.47;;;10.82;33.85
78741;BME280;68062;48.726;9.370;2023-04-05T10:17:08;99126.28;;;11.40;33.39
78741;BME280;68062;48.726;9.370;2023-04-05T10:19:46;99126.00;;;10.41;36.35
78741;BME280;68062;48.726;9.370;2023-04-05T10:22:21;99119.19;;;10.46;34.64
78741;BME280;68062;48.726;9.370;2023-04-05T10:24:53;99118.22;;;12.85;32.27
78741;BME280;68062;48.726;9.370;2023-04-05T10:27:28;99111.22;;;13.05;31.16
78741;BME280;68062;48.726;9.370;2023-04-05T10:30:02;99098.78;;;11.86;32.42
78741;BME280;68062;48.726;9.370;2023-04-05T10:32:43;99097.91;;;10.94;33.90
78741;BME280;68062;48.726;9.370;2023-04-05T10:35:16;99110.78;;;11.17;33.66
78741;BME280;68062;48.726;9.370;2023-04-05T10:37:53;99111.66;;;11.22;33.61
78741;BME280;68062;48.726;9.370;2023-04-05T10:40:24;99101.34;;;11.19;33.34
78741;BME280;68062;48.726;9.370;2023-04-05T10:42:56;99106.38;;;12.43;33.23
78741;BME280;68062;48.726;9.370;2023-04-05T10:45:26;99099.41;;;12.61;32.23
78741;BME280;68062;48.726;9.370;2023-04-05T10:47:55;99084.97;;;11.99;32.40
78741;BME280;68062;48.726;9.370;2023-04-05T10:50:23;99092.72;;;12.12;32.16
78741;BME280;68062;48.726;9.370;2023-04-05T10:52:51;99046.44;;;11.34;32.88
78741;BME280;68062;48.726;9.370;2023-04-05T10:55:18;99097.09;;;11.26;33.56
78741;BME280;68062;48.726;9.370;2023-04-05T10:57:46;99095.19;;;12.47;32.01
78741;BME280;68062;48.726;9.370;2023-04-05T11:00:16;99093.22;;;12.91;31.86
78741;BME280;68062;48.726;9.370;2023-04-05T11:02:44;99093.59;;;12.06;32.33
78741;BME280;68062;48.726;9.370;2023-04-05T11:05:32;99096.03;;;12.49;31.67
78741;BME280;68062;48.726;9.370;2023-04-05T11:08:02;99090.78;;;12.71;30.79
78741;BME280;68062;48.726;9.370;2023-04-05T11:10:29;99087.50;;;12.29;32.98
78741;BME280;68062;48.726;9.370;2023-04-05T11:13:07;99086.56;;;12.47;34.03
78741;BME280;68062;48.726;9.370;2023-04-05T11:15:36;99085.00;;;13.58;31.64
78741;BME280;68062;48.726;9.370;2023-04-05T11:18:20;99076.44;;;14.36;31.20
78741;BME280;68062;48.726;9.370;2023-04-05T11:20:48;99077.38;;;13.44;29.61
78741;BME280;68062;48.726;9.370;2023-04-05T11:23:18;99065.72;;;12.84;30.85
78741;BME280;68062;48.726;9.370;2023-04-05T11:25:47;99072.47;;;13.07;31.96
78741;BME280;68062;48.726;9.370;2023-04-05T11:28:22;99046.44;;;13.30;30.79
78741;BME280;68062;48.726;9.370;2023-04-05T11:30:52;99063.38;;;12.42;32.41
78741;BME280;68062;48.726;9.370;2023-04-05T11:33:38;99054.06;;;13.50;31.24
78741;BME280;68062;48.726;9.370;2023-04-05T11:36:05;99057.25;;;13.80;31.67
78741;BME280;68062;48.726;9.370;2023-04-05T11:38:32;99056.44;;;12.60;31.13
78741;BME280;68062;48.726;9.370;2023-04-05T11:41:10;99057.56;;;11.66;30.82
78741;BME280;68062;48.726;9.370;2023-04-05T11:43:37;99047.31;;;11.39;31.09
78741;BME280;68062;48.726;9.370;2023-04-05T11:46:05;99040.94;;;12.58;31.88
78741;BME280;68062;48.726;9.370;2023-04-05T11:48:32;98996.56;;;11.77;31.99
78741;BME280;68062;48.726;9.370;2023-04-05T11:50:59;99025.69;;;12.12;31.53
78741;BME280;68062;48.726;9.370;2023-04-05T11:53:26;99051.25;;;12.63;31.80
78741;BME280;68062;48.726;9.370;2023-04-05T11:55:53;99039.00;;;12.94;31.03
78741;BME280;68062;48.726;9.370;2023-04-05T11:58:22;99012.81;;;12.10;32.31
78741;BME280;68062;48.726;9.370;2023-04-05T12:00:59;99046.16;;;12.50;31.50
78741;BME280;68062;48.726;9.370;2023-04-05T12:03:29;99036.53;;;12.76;31.44
78741;BME280;68062;48.726;9.370;2023-04-05T12:05:59;99029.59;;;13.86;31.87
78741;BME280;68062;48.726;9.370;2023-04-05T12:08:37;99030.09;;;14.19;30.55
78741;BME280;68062;48.726;9.370;2023-04-05T12:11:06;99032.19;;;14.56;29.91
78741;BME280;68062;48.726;9.370;2023-04-05T12:13:33;99017.34;;;14.67;29.46
78741;BME280;68062;48.726;9.370;2023-04-05T12:16:01;99022.88;;;15.05;29.87
78741;BME280;68062;48.726;9.370;2023-04-05T12:18:31;99022.81;;;14.49;29.28
78741;BME280;68062;48.726;9.370;2023-04-05T12:20:59;99014.66;;;14.77;29.27
78741;BME280;68062;48.726;9.370;2023-04-05T12:23:26;99023.03;;;16.37;27.74
78741;BME280;68062;48.726;9.370;2023-04-05T12:25:55;99008.44;;;16.33;28.39
78741;BME280;68062;48.726;9.370;2023-04-05T12:28:22;99005.53;;;16.85;28.70
78741;BME280;68062;48.726;9.370;2023-04-05T12:30:50;99004.94;;;16.34;27.23
78741;BME280;68062;48.726;9.370;2023-04-05T12:33:26;98997.94;;;15.48;27.65
78741;BME280;68062;48.726;9.370;2023-04-05T12:35:55;98992.31;;;15.73;28.63
78741;BME280;68062;48.726;9.370;2023-04-05T12:38:24;98990.38;;;17.04;26.87
78741;BME280;68062;48.726;9.370;2023-04-05T12:40:52;98991.56;;;17.27;28.31
78741;BME280;68062;48.726;9.370;2023-04-05T12:43:19;98991.50;;;16.56;28.08
78741;BME280;68062;48.726;9.370;2023-04-05T12:45:46;98973.31;;;15.72;28.48
78741;BME280;68062;48.726;9.370;2023-04-05T12:48:19;98984.81;;;15.57;30.09
78741;BME280;68062;48.726;9.370;2023-04-05T12:50:47;98980.34;;;15.66;28.94
78741;BME280;68062;48.726;9.370;2023-04-05T12:53:19;98981.41;;;16.01;28.28
78741;BME280;68062;48.726;9.370;2023-04-05T12:55:50;98975.38;;;16.00;27.38
78741;BME280;68062;48.726;9.370;2023-04-05T12:58:17;98968.97;;;15.74;27.81
78741;BME280;68062;48.726;9.370;2023-04-05T13:00:44;98983.88;;;16.07;27.71
78741;BME280;68062;48.726;9.370;2023-04-05T13:03:15;98980.47;;;16.05;27.32
78741;BME280;68062;48.726;9.370;2023-04-05T13:05:45;98967.50;;;16.82;25.91
78741;BME280;68062;48.726;9.370;2023-04-05T13:08:13;98967.03;;;17.37;27.12
78741;BME280;68062;48.726;9.370;2023-04-05T13:10:41;98956.88;;;18.22;26.75
78741;BME280;68062;48.726;9.370;2023-04-05T13:13:08;98949.44;;;19.21;25.83
78741;BME280;68062;48.726;9.370;2023-04-05T13:15:34;98949.16;;;18.19;25.10